sensor_id;sensor_type;location;lat;lon;timestamp;temperature;humidity
32187;DHT22;18686;53.084;8.872;2024-02-23T00:02:07;9.30;99.90
32187;DHT22;18686;53.084;8.872;2024-02-23T00:08:40;9.40;99.90
32187;DHT22;18686;53.084;8.872;2024-02-23T00:11:41;9.40;99.90
32187;DHT22;18686;53.084;8.872;2024-02-23T00:14:44;9.40;99.90
32187;DHT22;18686;53.084;8.872;2024-02-23T00:18:20;9.20;99.90
32187;DHT22;18686;53.084;8.872;2024-02-23T00:20:56;8.80;99.90
32187;DHT22;18686;53.084;8.872;2024-02-23T00:23:48;8.40;99.90
32187;DHT22;18686;53.084;8.872;2024-02-23T00:26:29;8.00;99.90
32187;DHT22;18686;53.084;8.872;2024-02-23T00:29:05;7.70;99.90
32187;DHT22;18686;53.084;8.872;2024-02-23T00:31:48;7.50;99.90
32187;DHT22;18686;53.084;8.872;2024-02-23T00:34:18;7.40;99.90
32187;DHT22;18686;53.084;8.872;2024-02-23T00:36:54;7.30;99.90
32187;DHT22;18686;53.084;8.872;2024-02-23T00:39:24;7.10;99.90
32187;DHT22;18686;53.084;8.872;2024-02-23T00:41:54;7.00;99.90
32187;DHT22;18686;53.084;8.872;2024-02-23T00:44:23;7.00;99.90
32187;DHT22;18686;53.084;8.872;2024-02-23T00:46:53;6.90;99.90
32187;DHT22;18686;53.084;8.872;2024-02-23T00:49:22;6.90;99.90
32187;DHT22;18686;53.084;8.872;2024-02-23T00:51:52;6.90;99.90
32187;DHT22;18686;53.084;8.872;2024-02-23T00:54:22;6.90;99.90
32187;DHT22;18686;53.084;8.872;2024-02-23T00:56:52;6.80;99.90
32187;DHT22;18686;53.084;8.872;2024-02-23T00:59:24;6.90;99.90
32187;DHT22;18686;53.084;8.872;2024-02-23T01:02:00;6.90;99.90
32187;DHT22;18686;53.084;8.872;2024-02-23T01:04:30;6.90;99.90
32187;DHT22;18686;53.084;8.872;2024-02-23T01:06:59;7.00;99.90
32187;DHT22;18686;53.084;8.872;2024-02-23T01:09:30;7.10;99.90
32187;DHT22;18686;53.084;8.872;2024-02-23T01:11:59;7.20;99.90
32187;DHT22;18686;53.084;8.872;2024-02-23T01:14:28;7.20;99.90
32187;DHT22;18686;53.084;8.872;2024-02-23T01:17:01;7.30;99.90
32187;DHT22;18686;53.084;8.872;2024-02-23T01:19:48;7.30;99.90
32187;DHT22;18686;53.084;8.872;2024-02-23T01:22:18;7.30;99.90
32187;DHT22;18686;53.084;8.872;2024-02-23T01:24:49;7.30;99.90
32187;DHT22;18686;53.084;8.872;2024-02-23T01:27:19;7.20;99.90
32187;DHT22;18686;53.084;8.872;2024-02-23T01:30:17;7.20;99.90
32187;DHT22;18686;53.084;8.872;2024-02-23T01:32:52;7.10;99.90
32187;DHT22;18686;53.084;8.872;2024-02-23T01:35:25;7.00;99.90
32187;DHT22;18686;53.084;8.872;2024-02-23T01:38:14;7.00;99.90
32187;DHT22;18686;53.084;8.872;2024-02-23T01:42:27;6.90;99.90
32187;DHT22;18686;53.084;8.872;2024-02-23T01:45:29;6.70;99.90
32187;DHT22;18686;53.084;8.872;2024-02-23T01:48:44;6.60;99.90
32187;DHT22;18686;53.084;8.872;2024-02-23T01:51:27;6.50;99.90
32187;DHT22;18686;53.084;8.872;2024-02-23T01:54:10;6.50;99.90
32187;DHT22;18686;53.084;8.872;2024-02-23T01:57:21;6.50;99.90
32187;DHT22;18686;53.084;8.872;2024-02-23T02:00:21;6.50;99.90
32187;DHT22;18686;53.084;8.872;2024-02-23T02:02:55;6.50;99.90
32187;DHT22;18686;53.084;8.872;2024-02-23T02:05:25;6.40;99.90
32187;DHT22;18686;53.084;8.872;2024-02-23T02:10:57;6.40;99.90
32187;DHT22;18686;53.084;8.872;2024-02-23T02:14:50;6.30;99.90
32187;DHT22;18686;53.084;8.872;2024-02-23T02:51:58;5.90;99.90
32187;DHT22;18686;53.084;8.872;2024-02-23T03:02:03;5.70;99.90
32187;DHT22;18686;53.084;8.872;2024-02-23T03:04:56;5.60;99.90
32187;DHT22;18686;53.084;8.872;2024-02-23T03:07:49;5.50;99.90
32187;DHT22;18686;53.084;8.872;2024-02-23T03:10:22;5.50;99.90
32187;DHT22;18686;53.084;8.872;2024-02-23T03:13:11;5.40;99.90
32187;DHT22;18686;53.084;8.872;2024-02-23T03:15:41;5.40;99.90
32187;DHT22;18686;53.084;8.872;2024-02-23T03:18:37;5.40;99.90
32187;DHT22;18686;53.084;8.872;2024-02-23T03:21:06;5.40;99.90
32187;DHT22;18686;53.084;8.872;2024-02-23T03:24:19;5.40;99.90
32187;DHT22;18686;53.084;8.872;2024-02-23T03:31:20;5.30;99.90
32187;DHT22;18686;53.084;8.872;2024-02-23T03:34:09;5.30;99.90
32187;DHT22;18686;53.084;8.872;2024-02-23T03:36:42;5.40;99.90
32187;DHT22;18686;53.084;8.872;2024-02-23T03:39:38;5.40;99.90
32187;DHT22;18686;53.084;8.872;2024-02-23T03:45:50;5.40;99.90
32187;DHT22;18686;53.084;8.872;2024-02-23T03:48:29;5.40;99.90
32187;DHT22;18686;53.084;8.872;2024-02-23T03:54:57;5.40;99.90
32187;DHT22;18686;53.084;8.872;2024-02-23T03:58:28;5.30;99.90
32187;DHT22;18686;53.084;8.872;2024-02-23T04:00:58;5.20;99.90
32187;DHT22;18686;53.084;8.872;2024-02-23T04:05:27;5.10;99.90
32187;DHT22;18686;53.084;8.872;2024-02-23T04:07:59;5.10;99.90
32187;DHT22;18686;53.084;8.872;2024-02-23T04:11:12;5.10;99.90
32187;DHT22;18686;53.084;8.872;2024-02-23T04:14:35;5.10;99.90
32187;DHT22;18686;53.084;8.872;2024-02-23T04:17:50;5.20;99.90
32187;DHT22;18686;53.084;8.872;2024-02-23T04:20:20;5.20;99.90
32187;DHT22;18686;53.084;8.872;2024-02-23T04:22:59;5.20;99.90
32187;DHT22;18686;53.084;8.872;2024-02-23T04:26:00;5.30;99.90
32187;DHT22;18686;53.084;8.872;2024-02-23T04:28:49;5.30;99.90
32187;DHT22;18686;53.084;8.872;2024-02-23T04:32:11;5.30;99.90
32187;DHT22;18686;53.084;8.872;2024-02-23T04:38:12;5.40;99.90
32187;DHT22;18686;53.084;8.872;2024-02-23T04:41:19;5.30;99.90
32187;DHT22;18686;53.084;8.872;2024-02-23T04:44:10;5.40;99.90
32187;DHT22;18686;53.084;8.872;2024-02-23T04:46:53;5.30;99.90
32187;DHT22;18686;53.084;8.872;2024-02-23T04:49:38;5.30;99.90
32187;DHT22;18686;53.084;8.872;2024-02-23T04:52:08;5.20;99.90
32187;DHT22;18686;53.084;8.872;2024-02-23T04:54:37;5.20;99.90
32187;DHT22;18686;53.084;8.872;2024-02-23T04:57:14;5.10;99.90
32187;DHT22;18686;53.084;8.872;2024-02-23T04:59:54;5.10;99.90
32187;DHT22;18686;53.084;8.872;2024-02-23T05:02:25;5.10;99.90
32187;DHT22;18686;53.084;8.872;2024-02-23T05:05:00;5.10;99.90
32187;DHT22;18686;53.084;8.872;2024-02-23T05:07:32;5.10;99.90
32187;DHT22;18686;53.084;8.872;2024-02-23T05:10:02;5.10;99.90
32187;DHT22;18686;53.084;8.872;2024-02-23T05:12:39;5.10;99.90
32187;DHT22;18686;53.084;8.872;2024-02-23T05:15:16;5.10;99.90
32187;DHT22;18686;53.084;8.872;2024-02-23T05:18:31;5.00;99.90
32187;DHT22;18686;53.084;8.872;2024-02-23T05:21:29;5.00;99.90
32187;DHT22;18686;53.084;8.872;2024-02-23T05:23:59;5.00;99.90
32187;DHT22;18686;53.084;8.872;2024-02-23T05:26:47;4.90;99.90
32187;DHT22;18686;53.084;8.872;2024-02-23T05:29:16;4.90;99.90
32187;DHT22;18686;53.084;8.872;2024-02-23T05:31:52;4.90;99.90
32187;DHT22;18686;53.084;8.872;2024-02-23T05:34:22;4.90;99.90
32187;DHT22;18686;53.084;8.872;2024-02-23T05:36:51;4.90;99.90
32187;DHT22;18686;53.084;8.872;2024-02-23T05:39:20;4.90;99.90
32187;DHT22;18686;53.084;8.872;2024-02-23T05:41:49;5.00;99.90
32187;DHT22;18686;53.084;8.872;2024-02-23T05:44:18;5.00;99.90
32187;DHT22;18686;53.084;8.872;2024-02-23T05:46:48;5.00;99.90
32187;DHT22;18686;53.084;8.872;2024-02-23T05:49:18;4.90;99.90
32187;DHT22;18686;53.084;8.872;2024-02-23T05:51:51;4.90;99.90
32187;DHT22;18686;53.084;8.872;2024-02-23T05:54:21;4.90;99.90
32187;DHT22;18686;53.084;8.872;2024-02-23T05:56:50;4.90;99.90
32187;DHT22;18686;53.084;8.872;2024-02-23T05:59:20;4.80;99.90
32187;DHT22;18686;53.084;8.872;2024-02-23T06:01:49;4.80;99.90
32187;DHT22;18686;53.084;8.872;2024-02-23T06:04:29;4.90;99.90
32187;DHT22;18686;53.084;8.872;2024-02-23T06:06:58;4.90;99.90
32187;DHT22;18686;53.084;8.872;2024-02-23T06:09:35;4.90;99.90
32187;DHT22;18686;53.084;8.872;2024-02-23T06:12:10;4.90;99.90
32187;DHT22;18686;53.084;8.872;2024-02-23T06:15:23;5.00;99.90
32187;DHT22;18686;53.084;8.872;2024-02-23T06:18:28;5.10;99.90
32187;DHT22;18686;53.084;8.872;2024-02-23T06:21:13;5.20;99.90
32187;DHT22;18686;53.084;8.872;2024-02-23T06:23:50;5.20;99.90
32187;DHT22;18686;53.084;8.872;2024-02-23T06:26:23;5.20;99.90
32187;DHT22;18686;53.084;8.872;2024-02-23T06:28:52;5.20;99.90
32187;DHT22;18686;53.084;8.872;2024-02-23T06:31:25;5.20;99.90
32187;DHT22;18686;53.084;8.872;2024-02-23T06:34:13;5.10;99.90
32187;DHT22;18686;53.084;8.872;2024-02-23T06:37:03;5.10;99.90
32187;DHT22;18686;53.084;8.872;2024-02-23T06:40:40;5.10;99.90
32187;DHT22;18686;53.084;8.872;2024-02-23T06:44:22;5.10;99.90
32187;DHT22;18686;53.084;8.872;2024-02-23T06:47:03;5.20;99.90
32187;DHT22;18686;53.084;8.872;2024-02-23T06:50:06;5.30;99.90
32187;DHT22;18686;53.084;8.872;2024-02-23T06:52:37;5.40;99.90
32187;DHT22;18686;53.084;8.872;2024-02-23T06:55:14;5.40;99.90
32187;DHT22;18686;53.084;8.872;2024-02-23T06:57:47;5.50;99.90
32187;DHT22;18686;53.084;8.872;2024-02-23T07:00:21;5.50;99.90
32187;DHT22;18686;53.084;8.872;2024-02-23T07:02:55;5.60;99.90
32187;DHT22;18686;53.084;8.872;2024-02-23T07:05:26;5.60;99.90
32187;DHT22;18686;53.084;8.872;2024-02-23T07:08:16;5.70;99.90
32187;DHT22;18686;53.084;8.872;2024-02-23T07:10:49;5.70;99.90
32187;DHT22;18686;53.084;8.872;2024-02-23T07:13:18;5.70;99.90
32187;DHT22;18686;53.084;8.872;2024-02-23T07:15:47;5.70;99.90
32187;DHT22;18686;53.084;8.872;2024-02-23T07:18:26;5.80;99.90
32187;DHT22;18686;53.084;8.872;2024-02-23T07:20:56;5.80;99.90
32187;DHT22;18686;53.084;8.872;2024-02-23T07:23:26;5.90;99.90
32187;DHT22;18686;53.084;8.872;2024-02-23T07:26:15;5.90;99.90
32187;DHT22;18686;53.084;8.872;2024-02-23T07:28:49;6.00;99.90
32187;DHT22;18686;53.084;8.872;2024-02-23T07:31:21;6.00;99.90
32187;DHT22;18686;53.084;8.872;2024-02-23T07:33:50;6.10;99.90
32187;DHT22;18686;53.084;8.872;2024-02-23T07:36:30;6.10;99.90
32187;DHT22;18686;53.084;8.872;2024-02-23T07:40:22;6.20;99.90
32187;DHT22;18686;53.084;8.872;2024-02-23T07:42:36;6.20;99.90
32187;DHT22;18686;53.084;8.872;2024-02-23T07:45:31;6.30;99.90
32187;DHT22;18686;53.084;8.872;2024-02-23T07:48:02;6.40;99.90
32187;DHT22;18686;53.084;8.872;2024-02-23T07:50:31;6.40;99.90
32187;DHT22;18686;53.084;8.872;2024-02-23T07:53:00;6.50;99.90
32187;DHT22;18686;53.084;8.872;2024-02-23T07:55:31;6.60;99.90
32187;DHT22;18686;53.084;8.872;2024-02-23T07:58:02;6.60;99.90
32187;DHT22;18686;53.084;8.872;2024-02-23T08:00:34;6.70;99.90
32187;DHT22;18686;53.084;8.872;2024-02-23T08:03:52;6.90;99.90
32187;DHT22;18686;53.084;8.872;2024-02-23T08:06:29;7.00;99.90
32187;DHT22;18686;53.084;8.872;2024-02-23T08:08:59;7.10;99.90
32187;DHT22;18686;53.084;8.872;2024-02-23T08:11:55;7.20;99.90
32187;DHT22;18686;53.084;8.872;2024-02-23T08:14:42;7.30;99.90
32187;DHT22;18686;53.084;8.872;2024-02-23T08:17:36;7.50;99.90
32187;DHT22;18686;53.084;8.872;2024-02-23T08:21:20;7.60;99.90
32187;DHT22;18686;53.084;8.872;2024-02-23T08:33:19;8.50;99.90
32187;DHT22;18686;53.084;8.872;2024-02-23T08:35:59;8.70;99.90
32187;DHT22;18686;53.084;8.872;2024-02-23T08:38:48;8.90;99.90
32187;DHT22;18686;53.084;8.872;2024-02-23T08:41:17;9.00;99.90
32187;DHT22;18686;53.084;8.872;2024-02-23T08:43:51;9.20;99.90
32187;DHT22;18686;53.084;8.872;2024-02-23T08:46:35;9.40;99.90
32187;DHT22;18686;53.084;8.872;2024-02-23T08:49:38;9.50;99.70
32187;DHT22;18686;53.084;8.872;2024-02-23T08:52:11;9.50;99.00
32187;DHT22;18686;53.084;8.872;2024-02-23T08:54:47;9.60;98.80
32187;DHT22;18686;53.084;8.872;2024-02-23T08:57:47;9.80;97.90
32187;DHT22;18686;53.084;8.872;2024-02-23T09:00:47;10.10;96.70
32187;DHT22;18686;53.084;8.872;2024-02-23T09:03:21;10.60;94.70
32187;DHT22;18686;53.084;8.872;2024-02-23T09:05:58;11.00;92.10
32187;DHT22;18686;53.084;8.872;2024-02-23T09:08:27;11.20;90.50
32187;DHT22;18686;53.084;8.872;2024-02-23T09:10:58;11.40;90.40
32187;DHT22;18686;53.084;8.872;2024-02-23T09:13:27;11.50;86.60
32187;DHT22;18686;53.084;8.872;2024-02-23T09:16:13;11.50;85.90
32187;DHT22;18686;53.084;8.872;2024-02-23T09:18:56;11.40;83.90
32187;DHT22;18686;53.084;8.872;2024-02-23T09:21:36;11.10;84.60
32187;DHT22;18686;53.084;8.872;2024-02-23T09:24:30;10.80;84.30
32187;DHT22;18686;53.084;8.872;2024-02-23T09:27:04;10.50;86.70
32187;DHT22;18686;53.084;8.872;2024-02-23T09:33:47;9.90;90.20
32187;DHT22;18686;53.084;8.872;2024-02-23T09:36:19;9.70;90.40
32187;DHT22;18686;53.084;8.872;2024-02-23T09:39:14;9.60;91.00
32187;DHT22;18686;53.084;8.872;2024-02-23T09:41:50;9.50;91.60
32187;DHT22;18686;53.084;8.872;2024-02-23T09:44:44;9.40;91.90
32187;DHT22;18686;53.084;8.872;2024-02-23T09:47:17;9.20;92.90
32187;DHT22;18686;53.084;8.872;2024-02-23T09:49:58;9.00;92.20
32187;DHT22;18686;53.084;8.872;2024-02-23T09:52:36;8.80;93.10
32187;DHT22;18686;53.084;8.872;2024-02-23T09:55:20;8.70;94.00
32187;DHT22;18686;53.084;8.872;2024-02-23T09:57:57;8.60;94.70
32187;DHT22;18686;53.084;8.872;2024-02-23T10:00:27;8.50;95.00
32187;DHT22;18686;53.084;8.872;2024-02-23T10:02:58;8.40;94.30
32187;DHT22;18686;53.084;8.872;2024-02-23T10:05:30;8.30;94.20
32187;DHT22;18686;53.084;8.872;2024-02-23T10:08:06;8.30;95.00
32187;DHT22;18686;53.084;8.872;2024-02-23T10:10:37;8.30;95.30
32187;DHT22;18686;53.084;8.872;2024-02-23T10:13:17;8.30;95.20
32187;DHT22;18686;53.084;8.872;2024-02-23T10:15:56;8.30;95.10
32187;DHT22;18686;53.084;8.872;2024-02-23T10:18:41;8.40;95.50
32187;DHT22;18686;53.084;8.872;2024-02-23T10:21:12;8.50;95.20
32187;DHT22;18686;53.084;8.872;2024-02-23T10:23:51;8.50;94.50
32187;DHT22;18686;53.084;8.872;2024-02-23T10:26:34;8.50;94.30
32187;DHT22;18686;53.084;8.872;2024-02-23T10:29:34;8.50;95.10
32187;DHT22;18686;53.084;8.872;2024-02-23T10:33:00;8.50;95.40
32187;DHT22;18686;53.084;8.872;2024-02-23T10:35:56;8.50;95.60
32187;DHT22;18686;53.084;8.872;2024-02-23T10:38:31;8.60;95.30
32187;DHT22;18686;53.084;8.872;2024-02-23T10:41:05;8.60;94.40
32187;DHT22;18686;53.084;8.872;2024-02-23T10:43:44;8.60;94.10
32187;DHT22;18686;53.084;8.872;2024-02-23T10:46:13;8.50;93.60
32187;DHT22;18686;53.084;8.872;2024-02-23T10:48:46;8.60;93.90
32187;DHT22;18686;53.084;8.872;2024-02-23T10:51:28;8.60;94.20
32187;DHT22;18686;53.084;8.872;2024-02-23T10:54:02;8.60;93.80
32187;DHT22;18686;53.084;8.872;2024-02-23T10:56:51;8.70;93.80
32187;DHT22;18686;53.084;8.872;2024-02-23T10:59:26;8.70;93.70
32187;DHT22;18686;53.084;8.872;2024-02-23T11:02:17;8.70;93.00
32187;DHT22;18686;53.084;8.872;2024-02-23T11:05:03;8.70;93.40
32187;DHT22;18686;53.084;8.872;2024-02-23T11:07:40;8.60;93.50
32187;DHT22;18686;53.084;8.872;2024-02-23T11:10:13;8.60;93.10
32187;DHT22;18686;53.084;8.872;2024-02-23T11:12:43;8.50;92.80
32187;DHT22;18686;53.084;8.872;2024-02-23T11:15:27;8.50;93.00
32187;DHT22;18686;53.084;8.872;2024-02-23T11:17:56;8.50;93.40
32187;DHT22;18686;53.084;8.872;2024-02-23T11:20:34;8.50;93.80
32187;DHT22;18686;53.084;8.872;2024-02-23T11:23:13;8.70;93.40
32187;DHT22;18686;53.084;8.872;2024-02-23T11:25:43;8.80;92.90
32187;DHT22;18686;53.084;8.872;2024-02-23T11:28:24;8.90;92.00
32187;DHT22;18686;53.084;8.872;2024-02-23T11:33:53;9.00;91.90
32187;DHT22;18686;53.084;8.872;2024-02-23T11:36:23;9.30;91.00
32187;DHT22;18686;53.084;8.872;2024-02-23T11:39:02;9.50;90.10
32187;DHT22;18686;53.084;8.872;2024-02-23T11:43:42;9.50;89.10
32187;DHT22;18686;53.084;8.872;2024-02-23T11:46:01;9.60;89.50
32187;DHT22;18686;53.084;8.872;2024-02-23T11:48:30;10.10;88.50
32187;DHT22;18686;53.084;8.872;2024-02-23T11:51:01;10.60;84.90
32187;DHT22;18686;53.084;8.872;2024-02-23T11:53:31;10.90;82.90
32187;DHT22;18686;53.084;8.872;2024-02-23T11:56:00;11.10;81.50
32187;DHT22;18686;53.084;8.872;2024-02-23T11:58:30;11.20;81.00
32187;DHT22;18686;53.084;8.872;2024-02-23T12:01:06;11.10;77.60
32187;DHT22;18686;53.084;8.872;2024-02-23T12:03:36;10.80;77.00
32187;DHT22;18686;53.084;8.872;2024-02-23T12:06:09;10.50;77.40
32187;DHT22;18686;53.084;8.872;2024-02-23T12:08:38;10.30;78.80
32187;DHT22;18686;53.084;8.872;2024-02-23T12:11:12;10.20;80.30
32187;DHT22;18686;53.084;8.872;2024-02-23T12:13:44;10.10;80.00
32187;DHT22;18686;53.084;8.872;2024-02-23T12:16:20;10.10;80.10
32187;DHT22;18686;53.084;8.872;2024-02-23T12:18:53;10.10;80.50
32187;DHT22;18686;53.084;8.872;2024-02-23T12:21:40;10.00;80.80
32187;DHT22;18686;53.084;8.872;2024-02-23T12:24:19;10.10;81.20
32187;DHT22;18686;53.084;8.872;2024-02-23T12:27:04;9.90;80.40
32187;DHT22;18686;53.084;8.872;2024-02-23T12:29:37;9.90;81.40
32187;DHT22;18686;53.084;8.872;2024-02-23T12:32:51;9.70;81.20
32187;DHT22;18686;53.084;8.872;2024-02-23T12:35:25;9.60;82.60
32187;DHT22;18686;53.084;8.872;2024-02-23T12:38:00;9.50;83.20
32187;DHT22;18686;53.084;8.872;2024-02-23T12:40:57;9.50;83.30
32187;DHT22;18686;53.084;8.872;2024-02-23T12:43:55;9.40;84.50
32187;DHT22;18686;53.084;8.872;2024-02-23T12:46:24;9.30;83.30
32187;DHT22;18686;53.084;8.872;2024-02-23T12:48:54;9.20;84.60
32187;DHT22;18686;53.084;8.872;2024-02-23T12:51:25;9.20;84.50
32187;DHT22;18686;53.084;8.872;2024-02-23T12:54:29;9.10;84.40
32187;DHT22;18686;53.084;8.872;2024-02-23T12:56:58;9.00;85.00
32187;DHT22;18686;53.084;8.872;2024-02-23T12:59:27;9.00;84.60
32187;DHT22;18686;53.084;8.872;2024-02-23T13:01:56;9.00;86.40
32187;DHT22;18686;53.084;8.872;2024-02-23T13:04:26;8.90;86.70
32187;DHT22;18686;53.084;8.872;2024-02-23T13:07:04;8.90;86.40
32187;DHT22;18686;53.084;8.872;2024-02-23T13:09:35;8.90;88.80
32187;DHT22;18686;53.084;8.872;2024-02-23T13:12:05;9.10;87.50
32187;DHT22;18686;53.084;8.872;2024-02-23T13:14:35;9.30;86.40
32187;DHT22;18686;53.084;8.872;2024-02-23T13:17:05;9.70;86.50
32187;DHT22;18686;53.084;8.872;2024-02-23T13:19:39;10.20;82.60
32187;DHT22;18686;53.084;8.872;2024-02-23T13:22:20;11.10;81.50
32187;DHT22;18686;53.084;8.872;2024-02-23T13:24:51;13.00;76.10
32187;DHT22;18686;53.084;8.872;2024-02-23T13:27:44;14.40;65.60
32187;DHT22;18686;53.084;8.872;2024-02-23T13:30:15;15.00;63.50
32187;DHT22;18686;53.084;8.872;2024-02-23T13:32:47;14.90;59.90
32187;DHT22;18686;53.084;8.872;2024-02-23T13:35:19;14.50;59.60
32187;DHT22;18686;53.084;8.872;2024-02-23T13:37:48;14.20;60.40
32187;DHT22;18686;53.084;8.872;2024-02-23T13:40:19;14.00;61.50
32187;DHT22;18686;53.084;8.872;2024-02-23T13:42:49;14.00;60.00
32187;DHT22;18686;53.084;8.872;2024-02-23T13:45:20;13.80;60.90
32187;DHT22;18686;53.084;8.872;2024-02-23T13:47:56;13.80;61.20
32187;DHT22;18686;53.084;8.872;2024-02-23T13:50:26;14.10;59.50
32187;DHT22;18686;53.084;8.872;2024-02-23T13:52:57;14.10;59.60
32187;DHT22;18686;53.084;8.872;2024-02-23T13:55:27;14.10;59.80
32187;DHT22;18686;53.084;8.872;2024-02-23T13:57:57;14.80;58.80
32187;DHT22;18686;53.084;8.872;2024-02-23T14:00:26;15.10;56.60
32187;DHT22;18686;53.084;8.872;2024-02-23T14:02:55;14.70;56.80
32187;DHT22;18686;53.084;8.872;2024-02-23T14:05:25;14.10;57.80
32187;DHT22;18686;53.084;8.872;2024-02-23T14:08:00;13.50;58.90
32187;DHT22;18686;53.084;8.872;2024-02-23T14:10:37;12.80;60.20
32187;DHT22;18686;53.084;8.872;2024-02-23T14:13:28;12.20;62.10
32187;DHT22;18686;53.084;8.872;2024-02-23T14:16:07;11.60;64.10
32187;DHT22;18686;53.084;8.872;2024-02-23T14:18:51;11.20;65.90
32187;DHT22;18686;53.084;8.872;2024-02-23T14:21:22;10.80;68.00
32187;DHT22;18686;53.084;8.872;2024-02-23T14:23:52;10.60;69.90
32187;DHT22;18686;53.084;8.872;2024-02-23T14:26:23;10.40;74.60
32187;DHT22;18686;53.084;8.872;2024-02-23T14:28:52;10.20;77.70
32187;DHT22;18686;53.084;8.872;2024-02-23T14:31:21;10.20;93.20
32187;DHT22;18686;53.084;8.872;2024-02-23T14:34:00;10.10;95.40
32187;DHT22;18686;53.084;8.872;2024-02-23T14:36:31;10.10;98.00
32187;DHT22;18686;53.084;8.872;2024-02-23T14:39:02;10.10;97.30
32187;DHT22;18686;53.084;8.872;2024-02-23T14:41:33;10.00;97.70
32187;DHT22;18686;53.084;8.872;2024-02-23T14:44:04;9.80;98.20
32187;DHT22;18686;53.084;8.872;2024-02-23T14:46:33;9.70;97.70
32187;DHT22;18686;53.084;8.872;2024-02-23T14:49:02;9.60;97.40
32187;DHT22;18686;53.084;8.872;2024-02-23T14:51:31;9.50;96.40
32187;DHT22;18686;53.084;8.872;2024-02-23T14:54:02;9.40;95.10
32187;DHT22;18686;53.084;8.872;2024-02-23T14:56:32;9.30;95.30
32187;DHT22;18686;53.084;8.872;2024-02-23T14:59:01;9.20;94.30
32187;DHT22;18686;53.084;8.872;2024-02-23T15:01:33;9.20;94.00
32187;DHT22;18686;53.084;8.872;2024-02-23T15:04:02;9.20;93.60
32187;DHT22;18686;53.084;8.872;2024-02-23T15:06:46;9.20;93.80
32187;DHT22;18686;53.084;8.872;2024-02-23T15:09:15;9.20;94.30
32187;DHT22;18686;53.084;8.872;2024-02-23T15:11:57;9.30;93.50
32187;DHT22;18686;53.084;8.872;2024-02-23T15:14:30;9.30;93.40
32187;DHT22;18686;53.084;8.872;2024-02-23T15:17:20;9.30;94.20
32187;DHT22;18686;53.084;8.872;2024-02-23T15:19:55;9.20;98.80
32187;DHT22;18686;53.084;8.872;2024-02-23T15:22:27;9.00;99.90
32187;DHT22;18686;53.084;8.872;2024-02-23T15:24:56;8.50;99.90
32187;DHT22;18686;53.084;8.872;2024-02-23T15:27:28;8.00;99.90
32187;DHT22;18686;53.084;8.872;2024-02-23T15:29:57;7.60;99.90
32187;DHT22;18686;53.084;8.872;2024-02-23T15:32:28;7.30;99.90
32187;DHT22;18686;53.084;8.872;2024-02-23T15:34:57;7.10;99.90
32187;DHT22;18686;53.084;8.872;2024-02-23T15:37:28;7.00;99.90
32187;DHT22;18686;53.084;8.872;2024-02-23T15:39:57;6.90;99.90
32187;DHT22;18686;53.084;8.872;2024-02-23T15:42:25;6.90;99.90
32187;DHT22;18686;53.084;8.872;2024-02-23T15:44:58;6.80;99.90
32187;DHT22;18686;53.084;8.872;2024-02-23T15:47:32;6.80;99.90
32187;DHT22;18686;53.084;8.872;2024-02-23T15:50:04;6.80;99.90
32187;DHT22;18686;53.084;8.872;2024-02-23T15:56:29;6.60;99.90
32187;DHT22;18686;53.084;8.872;2024-02-23T15:59:26;6.50;99.90
32187;DHT22;18686;53.084;8.872;2024-02-23T16:02:14;6.50;99.90
32187;DHT22;18686;53.084;8.872;2024-02-23T16:05:57;6.50;99.90
32187;DHT22;18686;53.084;8.872;2024-02-23T16:08:44;6.50;99.90
32187;DHT22;18686;53.084;8.872;2024-02-23T16:11:16;6.40;99.90
32187;DHT22;18686;53.084;8.872;2024-02-23T16:14:09;6.40;99.90
32187;DHT22;18686;53.084;8.872;2024-02-23T16:16:38;6.30;99.90
32187;DHT22;18686;53.084;8.872;2024-02-23T16:19:10;6.30;99.90
32187;DHT22;18686;53.084;8.872;2024-02-23T16:21:50;6.30;99.90
32187;DHT22;18686;53.084;8.872;2024-02-23T16:24:33;6.20;99.90
32187;DHT22;18686;53.084;8.872;2024-02-23T16:27:02;6.10;99.90
32187;DHT22;18686;53.084;8.872;2024-02-23T16:29:31;6.10;99.90
32187;DHT22;18686;53.084;8.872;2024-02-23T16:32:07;6.00;99.90
32187;DHT22;18686;53.084;8.872;2024-02-23T16:35:13;6.00;99.90
32187;DHT22;18686;53.084;8.872;2024-02-23T16:38:21;6.00;99.90
32187;DHT22;18686;53.084;8.872;2024-02-23T16:45:16;6.00;99.90
32187;DHT22;18686;53.084;8.872;2024-02-23T16:47:51;6.00;99.90
32187;DHT22;18686;53.084;8.872;2024-02-23T16:50:39;6.00;99.90
32187;DHT22;18686;53.084;8.872;2024-02-23T16:53:13;6.00;99.90
32187;DHT22;18686;53.084;8.872;2024-02-23T16:55:46;6.00;99.90
32187;DHT22;18686;53.084;8.872;2024-02-23T16:58:21;6.00;99.90
32187;DHT22;18686;53.084;8.872;2024-02-23T17:00:52;6.00;99.90
32187;DHT22;18686;53.084;8.872;2024-02-23T17:03:35;6.00;99.90
32187;DHT22;18686;53.084;8.872;2024-02-23T17:06:05;6.00;99.90
32187;DHT22;18686;53.084;8.872;2024-02-23T17:08:37;5.90;99.90
32187;DHT22;18686;53.084;8.872;2024-02-23T17:11:07;5.90;99.90
32187;DHT22;18686;53.084;8.872;2024-02-23T17:13:47;6.00;99.90
32187;DHT22;18686;53.084;8.872;2024-02-23T17:16:19;6.00;99.90
32187;DHT22;18686;53.084;8.872;2024-02-23T17:19:11;6.00;99.90
32187;DHT22;18686;53.084;8.872;2024-02-23T17:21:46;6.00;99.90
32187;DHT22;18686;53.084;8.872;2024-02-23T17:24:19;6.00;99.90
32187;DHT22;18686;53.084;8.872;2024-02-23T17:26:50;6.00;99.90
32187;DHT22;18686;53.084;8.872;2024-02-23T17:29:19;6.00;99.90
32187;DHT22;18686;53.084;8.872;2024-02-23T17:31:48;6.00;99.90
32187;DHT22;18686;53.084;8.872;2024-02-23T17:34:17;6.00;99.90
32187;DHT22;18686;53.084;8.872;2024-02-23T17:36:48;6.10;99.90
32187;DHT22;18686;53.084;8.872;2024-02-23T17:39:16;6.10;99.90
32187;DHT22;18686;53.084;8.872;2024-02-23T17:41:45;6.10;99.90
32187;DHT22;18686;53.084;8.872;2024-02-23T17:44:30;6.10;99.90
32187;DHT22;18686;53.084;8.872;2024-02-23T17:46:59;6.10;99.90
32187;DHT22;18686;53.084;8.872;2024-02-23T17:49:30;6.10;99.90
32187;DHT22;18686;53.084;8.872;2024-02-23T17:52:39;6.10;99.90
32187;DHT22;18686;53.084;8.872;2024-02-23T17:55:31;6.10;99.90
32187;DHT22;18686;53.084;8.872;2024-02-23T17:58:03;6.10;99.90
32187;DHT22;18686;53.084;8.872;2024-02-23T18:00:46;6.10;99.90
32187;DHT22;18686;53.084;8.872;2024-02-23T18:03:16;6.10;99.90
32187;DHT22;18686;53.084;8.872;2024-02-23T18:05:46;6.10;99.90
32187;DHT22;18686;53.084;8.872;2024-02-23T18:08:16;6.20;99.90
32187;DHT22;18686;53.084;8.872;2024-02-23T18:10:45;6.10;99.90
32187;DHT22;18686;53.084;8.872;2024-02-23T18:13:14;6.10;99.90
32187;DHT22;18686;53.084;8.872;2024-02-23T18:15:44;6.10;99.90
32187;DHT22;18686;53.084;8.872;2024-02-23T18:18:13;6.10;99.90
32187;DHT22;18686;53.084;8.872;2024-02-23T18:20:47;6.20;99.90
32187;DHT22;18686;53.084;8.872;2024-02-23T18:23:19;6.20;99.90
32187;DHT22;18686;53.084;8.872;2024-02-23T18:25:48;6.20;99.90
32187;DHT22;18686;53.084;8.872;2024-02-23T18:28:17;6.10;99.90
32187;DHT22;18686;53.084;8.872;2024-02-23T18:30:48;6.10;99.90
32187;DHT22;18686;53.084;8.872;2024-02-23T18:33:18;6.10;99.90
32187;DHT22;18686;53.084;8.872;2024-02-23T18:35:49;6.10;99.90